George Town, Cayman Islands
Current Conditions -  °F | °C
As of 5:53 AM on Tuesday 21 Oct 2014 (Local Time) from MWCR Reporting Station
Thunderstorm Thunderstorm  
Wind Chill: 28°   Ceiling: Unl
Heat Index: 33°   Visibility: 6mi
Dew Point: 25°   Wind: 7mph
Humidity: 84%   Direction: 100°E
Pressure: 29.85"   Gusts: NA
Location:  19.28°N, 81.39°W
Report Text: MWCR 211053Z 10006KT 9999 TS FEW012CB 28/25 Q1011 NOSIG
Loading
Personal Weather Stations






























Interactive Weather Map
Tropical Storm Tracking
New forecast layout! Learn more

10-Day Weather Forecast

Advertisements
Track Severe Weather on mobile